createdAt,value
2022-10-23T00:00:18.386Z,17.88
2022-10-23T00:02:54.784Z,18.03
2022-10-23T00:05:24.318Z,19.30
2022-10-23T00:07:58.283Z,18.17
2022-10-23T00:10:31.123Z,19.27
2022-10-23T00:12:59.252Z,17.17
2022-10-23T00:15:28.493Z,24.77
2022-10-23T00:17:56.994Z,19.58
2022-10-23T00:20:26.373Z,21.80
2022-10-23T00:22:56.268Z,21.35
2022-10-23T00:27:55.242Z,18.73
2022-10-23T00:30:23.455Z,23.85
2022-10-23T00:32:52.973Z,22.13
2022-10-23T00:35:24.629Z,27.98
2022-10-23T00:37:59.096Z,19.00
2022-10-23T00:40:27.397Z,25.15
2022-10-23T00:42:55.915Z,24.35
2022-10-23T00:45:27.783Z,31.50
2022-10-23T00:47:57.624Z,21.67
2022-10-23T00:50:30.589Z,24.90
2022-10-23T00:53:04.811Z,20.55
2022-10-23T00:55:36.187Z,20.67
2022-10-23T00:58:06.357Z,20.75
2022-10-23T01:00:45.812Z,30.83
2022-10-23T01:03:16.282Z,28.85
2022-10-23T01:05:51.099Z,16.67
2022-10-23T01:08:26.505Z,16.17
2022-10-23T01:11:05.339Z,23.27
2022-10-23T01:13:42.017Z,21.73
2022-10-23T01:16:15.805Z,18.33
2022-10-23T01:18:48.136Z,16.35
2022-10-23T01:21:23.516Z,19.77
2022-10-23T01:24:19.621Z,20.25
2022-10-23T01:27:13.892Z,18.17
2022-10-23T01:29:47.291Z,14.27
2022-10-23T01:32:21.633Z,15.68
2022-10-23T01:34:55.325Z,13.80
2022-10-23T01:37:30.988Z,15.85
2022-10-23T01:40:04.399Z,13.38
2022-10-23T01:42:40.137Z,12.82
2022-10-23T01:45:13.978Z,17.05
2022-10-23T01:47:44.783Z,18.58
2022-10-23T01:50:16.623Z,16.52
2022-10-23T01:52:46.012Z,16.70
2022-10-23T01:55:15.680Z,16.95
2022-10-23T01:57:48.009Z,19.27
2022-10-23T02:00:19.610Z,17.92
2022-10-23T02:02:49.213Z,15.73
2022-10-23T02:05:20.810Z,12.27
2022-10-23T02:07:49.375Z,15.20
2022-10-23T02:10:18.949Z,23.65
2022-10-23T02:12:57.683Z,13.23
2022-10-23T02:15:34.709Z,16.85
2022-10-23T02:18:09.625Z,20.33
2022-10-23T02:20:41.749Z,15.50
2022-10-23T02:23:19.447Z,22.25
2022-10-23T02:25:54.747Z,20.35
2022-10-23T02:28:29.108Z,14.57
2022-10-23T02:31:00.967Z,24.17
2022-10-23T02:33:32.125Z,21.92
2022-10-23T02:36:01.488Z,18.75
2022-10-23T02:38:35.972Z,19.83
2022-10-23T02:41:20.739Z,20.08
2022-10-23T02:44:03.358Z,20.20
2022-10-23T02:46:41.867Z,18.05
2022-10-23T02:49:15.054Z,24.27
2022-10-23T02:51:55.351Z,20.48
2022-10-23T02:54:44.471Z,18.17
2022-10-23T02:57:20.325Z,18.42
2022-10-23T02:59:59.798Z,14.55
2022-10-23T03:02:33.853Z,18.90
2022-10-23T03:05:04.511Z,21.90
2022-10-23T03:07:33.143Z,23.90
2022-10-23T03:10:01.447Z,27.48
2022-10-23T03:12:29.805Z,25.60
2022-10-23T03:15:00.363Z,21.30
2022-10-23T03:17:28.444Z,24.52
2022-10-23T03:19:57.922Z,22.42
2022-10-23T03:22:26.274Z,16.02
2022-10-23T03:24:54.545Z,20.98
2022-10-23T03:27:22.974Z,14.88
2022-10-23T03:29:51.188Z,17.38
2022-10-23T03:35:37.862Z,26.08
2022-10-23T03:38:06.186Z,24.83
2022-10-23T03:40:35.801Z,24.15
2022-10-23T03:43:05.262Z,23.55
2022-10-23T03:45:33.885Z,20.27
2022-10-23T03:48:03.692Z,34.15
2022-10-23T03:50:31.803Z,21.05
2022-10-23T03:52:59.863Z,22.50
2022-10-23T03:55:28.974Z,21.35
2022-10-23T03:57:57.108Z,19.67
2022-10-23T04:00:25.816Z,23.55
2022-10-23T04:02:53.967Z,22.77
2022-10-23T04:05:33.788Z,46.72
2022-10-23T04:10:30.524Z,32.53
2022-10-23T04:12:59.017Z,26.60
2022-10-23T04:15:27.364Z,28.63
2022-10-23T04:17:55.731Z,26.75
2022-10-23T04:20:26.996Z,26.48
2022-10-23T04:22:57.050Z,29.00
2022-10-23T04:25:26.943Z,23.15
2022-10-23T04:30:23.231Z,29.27
2022-10-23T04:32:55.040Z,29.52
2022-10-23T04:35:23.608Z,27.13
2022-10-23T04:37:52.344Z,31.60
2022-10-23T04:40:23.999Z,23.50
2022-10-23T04:42:52.748Z,23.92
2022-10-23T04:45:21.361Z,20.20
2022-10-23T04:47:50.329Z,27.05
2022-10-23T04:50:19.138Z,27.70
2022-10-23T04:52:47.688Z,29.92
2022-10-23T04:55:16.586Z,28.63
2022-10-23T04:57:48.645Z,31.63
2022-10-23T05:00:18.317Z,29.58
2022-10-23T05:02:46.877Z,35.92
2022-10-23T05:05:17.016Z,32.85
2022-10-23T05:07:47.723Z,32.25
2022-10-23T05:10:15.937Z,25.85
2022-10-23T05:12:45.701Z,33.38
2022-10-23T05:15:14.598Z,36.03
2022-10-23T05:17:45.169Z,37.58
2022-10-23T05:20:18.657Z,39.55
2022-10-23T05:22:50.345Z,35.42
2022-10-23T05:25:18.960Z,41.75
2022-10-23T05:27:49.529Z,29.83
2022-10-23T05:30:17.834Z,42.58
2022-10-23T05:32:46.323Z,40.63
2022-10-23T05:35:20.837Z,42.10
2022-10-23T05:38:09.534Z,40.65
2022-10-23T05:40:56.463Z,37.90
2022-10-23T05:43:46.288Z,44.42
2022-10-23T05:46:34.540Z,77.72
2022-10-23T05:49:22.988Z,122.72
2022-10-23T05:52:13.906Z,71.38
2022-10-23T05:54:42.248Z,50.03
2022-10-23T05:57:12.049Z,47.67
2022-10-23T06:02:10.818Z,55.80
2022-10-23T06:04:39.300Z,54.97
2022-10-23T06:07:07.538Z,80.68
2022-10-23T06:09:35.855Z,79.65
2022-10-23T06:12:04.728Z,92.22
2022-10-23T06:14:33.084Z,90.68
2022-10-23T06:17:02.627Z,117.70
2022-10-23T06:19:32.718Z,121.95
2022-10-23T06:22:01.629Z,119.63
2022-10-23T06:24:29.834Z,109.30
2022-10-23T06:26:58.290Z,98.65
2022-10-23T06:29:26.881Z,96.68
2022-10-23T06:31:55.066Z,92.65
2022-10-23T06:34:25.097Z,84.82
2022-10-23T06:36:53.133Z,112.05
2022-10-23T06:39:22.281Z,96.78
2022-10-23T06:41:50.435Z,87.32
2022-10-23T06:44:18.668Z,84.60
2022-10-23T06:46:47.228Z,93.00
2022-10-23T06:49:16.354Z,88.38
2022-10-23T06:51:46.243Z,92.38
2022-10-23T06:56:42.294Z,97.97
2022-10-23T06:59:10.672Z,92.28
2022-10-23T07:01:38.995Z,93.38
2022-10-23T07:04:07.637Z,89.60
2022-10-23T07:06:35.932Z,79.72
2022-10-23T07:09:05.769Z,77.20
2022-10-23T07:11:33.889Z,76.63
2022-10-23T07:14:02.288Z,70.45
2022-10-23T07:16:32.046Z,77.90
2022-10-23T07:19:02.418Z,69.90
2022-10-23T07:21:35.563Z,68.60
2022-10-23T07:24:05.607Z,70.15
2022-10-23T07:26:34.706Z,70.20
2022-10-23T07:29:03.069Z,63.00
2022-10-23T07:31:32.459Z,60.47
2022-10-23T07:34:00.830Z,65.28
2022-10-23T07:36:29.209Z,55.00
2022-10-23T07:38:58.384Z,45.25
2022-10-23T07:41:33.558Z,27.65
2022-10-23T07:44:02.899Z,30.60
2022-10-23T07:46:31.374Z,22.80
2022-10-23T07:49:02.618Z,22.08
2022-10-23T07:51:32.265Z,21.80
2022-10-23T07:54:04.167Z,23.83
2022-10-23T07:56:40.366Z,21.50
2022-10-23T07:59:21.791Z,17.90
2022-10-23T08:05:29.409Z,14.75
2022-10-23T09:16:36.490Z,13.18
2022-10-23T11:39:18.975Z,13.40
2022-10-23T11:41:54.595Z,12.85
2022-10-23T11:44:39.554Z,8.43
2022-10-23T11:47:28.508Z,15.15
2022-10-23T11:50:27.133Z,9.13
2022-10-23T11:53:15.640Z,9.32
2022-10-23T11:56:00.805Z,7.88
2022-10-23T12:04:55.041Z,10.27
2022-10-23T12:07:26.113Z,8.18
2022-10-23T12:09:56.994Z,8.10
2022-10-23T12:15:34.903Z,7.85
2022-10-23T12:18:14.661Z,7.82
2022-10-23T12:24:32.268Z,10.77
2022-10-23T12:30:45.191Z,8.52
2022-10-23T12:52:33.368Z,9.73
2022-10-23T12:55:02.001Z,8.45
2022-10-23T12:57:31.398Z,11.50
2022-10-23T13:00:04.595Z,8.30
2022-10-23T13:02:33.950Z,8.02
2022-10-23T13:08:19.508Z,12.20
2022-10-23T13:10:48.875Z,7.30
2022-10-23T13:13:23.267Z,9.88
2022-10-23T13:15:51.607Z,12.27
2022-10-23T13:18:19.960Z,10.68
2022-10-23T13:20:59.806Z,14.30
2022-10-23T13:26:02.335Z,11.30
2022-10-23T13:31:03.609Z,7.03
2022-10-23T13:40:38.611Z,12.13
2022-10-23T16:22:29.607Z,23.13
2022-10-23T16:38:43.932Z,20.77
2022-10-23T16:41:54.956Z,22.67
2022-10-23T16:44:42.018Z,25.53
2022-10-23T16:48:01.854Z,25.23
2022-10-23T16:51:07.765Z,26.23
2022-10-23T16:53:46.584Z,20.48
2022-10-23T16:56:31.038Z,20.73
2022-10-23T16:59:10.536Z,23.55
2022-10-23T17:10:26.224Z,22.50
2022-10-23T17:13:14.704Z,16.70
2022-10-23T17:36:46.863Z,17.85
2022-10-23T18:40:59.902Z,14.75
2022-10-23T18:52:13.617Z,20.58
2022-10-23T19:00:28.668Z,12.68
2022-10-23T20:28:20.434Z,14.98
2022-10-23T22:19:10.236Z,14.57
2022-10-23T22:21:44.333Z,20.15
2022-10-23T22:24:13.595Z,10.70
2022-10-23T22:26:46.635Z,11.27
2022-10-23T22:29:23.000Z,12.65
2022-10-23T22:34:52.991Z,12.07
2022-10-23T22:37:22.407Z,18.25
2022-10-23T22:39:54.857Z,15.05
2022-10-23T22:45:16.163Z,11.82
2022-10-23T22:47:47.941Z,12.63
2022-10-23T22:50:21.930Z,11.30
2022-10-23T22:52:52.990Z,13.88
2022-10-23T22:55:24.680Z,11.57
2022-10-23T22:57:55.704Z,9.82
2022-10-23T23:00:25.319Z,13.52
2022-10-23T23:02:53.799Z,14.07
2022-10-23T23:05:24.637Z,14.88
2022-10-23T23:07:53.003Z,16.05
2022-10-23T23:10:24.038Z,14.63
2022-10-23T23:12:54.475Z,12.55
2022-10-23T23:15:23.376Z,11.73
2022-10-23T23:17:51.807Z,11.63
2022-10-23T23:20:22.741Z,15.80
2022-10-23T23:22:53.104Z,18.88
2022-10-23T23:25:23.831Z,13.13
2022-10-23T23:27:52.743Z,11.75
2022-10-23T23:30:22.209Z,18.40
2022-10-23T23:32:54.615Z,17.00
2022-10-23T23:35:23.266Z,11.88
2022-10-23T23:37:53.391Z,15.65
2022-10-23T23:40:24.813Z,14.65
2022-10-23T23:42:54.408Z,19.58
2022-10-23T23:45:26.645Z,16.70
2022-10-23T23:47:55.368Z,16.83
2022-10-23T23:50:25.696Z,13.90
2022-10-23T23:52:58.068Z,18.65
2022-10-23T23:55:27.534Z,16.15
2022-10-23T23:57:57.482Z,13.97
